sensor_id;sensor_type;location;lat;lon;timestamp;P1;durP1;ratioP1;P2;durP2;ratioP2
78740;SDS011;68062;48.726;9.370;2023-11-22T00:00:53;14.73;;;10.40;;
78740;SDS011;68062;48.726;9.370;2023-11-22T00:03:20;14.20;;;9.20;;
78740;SDS011;68062;48.726;9.370;2023-11-22T00:05:49;16.10;;;10.23;;
78740;SDS011;68062;48.726;9.370;2023-11-22T00:08:16;21.13;;;12.33;;
78740;SDS011;68062;48.726;9.370;2023-11-22T00:10:43;14.80;;;10.37;;
78740;SDS011;68062;48.726;9.370;2023-11-22T00:13:12;16.90;;;10.30;;
78740;SDS011;68062;48.726;9.370;2023-11-22T00:15:40;19.37;;;13.20;;
78740;SDS011;68062;48.726;9.370;2023-11-22T00:18:07;14.43;;;9.33;;
78740;SDS011;68062;48.726;9.370;2023-11-22T00:20:34;18.20;;;10.03;;
78740;SDS011;68062;48.726;9.370;2023-11-22T00:23:01;13.77;;;10.00;;
78740;SDS011;68062;48.726;9.370;2023-11-22T00:25:29;16.70;;;10.77;;
78740;SDS011;68062;48.726;9.370;2023-11-22T00:27:58;15.43;;;9.70;;
78740;SDS011;68062;48.726;9.370;2023-11-22T00:30:25;12.60;;;7.90;;
78740;SDS011;68062;48.726;9.370;2023-11-22T00:32:53;6.57;;;4.90;;
78740;SDS011;68062;48.726;9.370;2023-11-22T00:35:21;4.43;;;4.10;;
78740;SDS011;68062;48.726;9.370;2023-11-22T00:37:49;3.80;;;3.63;;
78740;SDS011;68062;48.726;9.370;2023-11-22T00:40:16;4.63;;;3.97;;
78740;SDS011;68062;48.726;9.370;2023-11-22T00:42:42;5.20;;;3.73;;
78740;SDS011;68062;48.726;9.370;2023-11-22T00:45:10;3.93;;;3.73;;
78740;SDS011;68062;48.726;9.370;2023-11-22T00:47:37;4.37;;;4.07;;
78740;SDS011;68062;48.726;9.370;2023-11-22T00:50:08;4.30;;;4.00;;
78740;SDS011;68062;48.726;9.370;2023-11-22T00:52:35;5.17;;;4.57;;
78740;SDS011;68062;48.726;9.370;2023-11-22T00:55:02;6.30;;;4.30;;
78740;SDS011;68062;48.726;9.370;2023-11-22T00:57:30;5.20;;;4.90;;
78740;SDS011;68062;48.726;9.370;2023-11-22T00:59:57;5.40;;;4.50;;
78740;SDS011;68062;48.726;9.370;2023-11-22T01:02:28;4.63;;;3.90;;
78740;SDS011;68062;48.726;9.370;2023-11-22T01:04:58;5.13;;;3.80;;
78740;SDS011;68062;48.726;9.370;2023-11-22T01:07:28;4.20;;;3.73;;
78740;SDS011;68062;48.726;9.370;2023-11-22T01:09:55;3.20;;;3.10;;
78740;SDS011;68062;48.726;9.370;2023-11-22T01:12:21;4.50;;;4.10;;
78740;SDS011;68062;48.726;9.370;2023-11-22T01:14:48;4.60;;;3.73;;
78740;SDS011;68062;48.726;9.370;2023-11-22T01:17:15;4.60;;;4.30;;
78740;SDS011;68062;48.726;9.370;2023-11-22T01:19:44;5.10;;;4.40;;
78740;SDS011;68062;48.726;9.370;2023-11-22T01:22:14;4.87;;;4.40;;
78740;SDS011;68062;48.726;9.370;2023-11-22T01:24:56;5.23;;;4.53;;
78740;SDS011;68062;48.726;9.370;2023-11-22T01:27:33;6.00;;;4.73;;
78740;SDS011;68062;48.726;9.370;2023-11-22T01:30:01;5.63;;;4.80;;
78740;SDS011;68062;48.726;9.370;2023-11-22T01:32:32;7.20;;;6.80;;
78740;SDS011;68062;48.726;9.370;2023-11-22T01:35:05;8.93;;;7.10;;
78740;SDS011;68062;48.726;9.370;2023-11-22T01:37:33;6.63;;;4.97;;
78740;SDS011;68062;48.726;9.370;2023-11-22T01:40:01;6.00;;;5.63;;
78740;SDS011;68062;48.726;9.370;2023-11-22T01:42:29;6.60;;;5.50;;
78740;SDS011;68062;48.726;9.370;2023-11-22T01:44:56;8.17;;;6.87;;
78740;SDS011;68062;48.726;9.370;2023-11-22T01:47:23;6.17;;;5.87;;
78740;SDS011;68062;48.726;9.370;2023-11-22T01:49:51;7.33;;;6.00;;
78740;SDS011;68062;48.726;9.370;2023-11-22T01:52:21;8.17;;;6.60;;
78740;SDS011;68062;48.726;9.370;2023-11-22T01:54:48;6.90;;;6.20;;
78740;SDS011;68062;48.726;9.370;2023-11-22T01:57:21;8.20;;;5.97;;
78740;SDS011;68062;48.726;9.370;2023-11-22T01:59:48;6.13;;;5.07;;
78740;SDS011;68062;48.726;9.370;2023-11-22T02:02:16;6.23;;;5.30;;
78740;SDS011;68062;48.726;9.370;2023-11-22T02:04:43;5.57;;;5.17;;
78740;SDS011;68062;48.726;9.370;2023-11-22T02:07:10;7.70;;;5.60;;
78740;SDS011;68062;48.726;9.370;2023-11-22T02:09:37;7.67;;;5.60;;
78740;SDS011;68062;48.726;9.370;2023-11-22T02:12:05;6.67;;;5.10;;
78740;SDS011;68062;48.726;9.370;2023-11-22T02:14:39;5.43;;;5.03;;
78740;SDS011;68062;48.726;9.370;2023-11-22T02:17:07;6.03;;;5.20;;
78740;SDS011;68062;48.726;9.370;2023-11-22T02:19:36;6.30;;;5.20;;
78740;SDS011;68062;48.726;9.370;2023-11-22T02:22:03;6.03;;;5.00;;
78740;SDS011;68062;48.726;9.370;2023-11-22T02:24:32;5.17;;;4.70;;
78740;SDS011;68062;48.726;9.370;2023-11-22T02:26:59;6.77;;;4.57;;
78740;SDS011;68062;48.726;9.370;2023-11-22T02:29:29;5.60;;;4.67;;
78740;SDS011;68062;48.726;9.370;2023-11-22T02:31:56;6.30;;;5.67;;
78740;SDS011;68062;48.726;9.370;2023-11-22T02:34:24;5.73;;;4.10;;
78740;SDS011;68062;48.726;9.370;2023-11-22T02:36:53;5.80;;;4.30;;
78740;SDS011;68062;48.726;9.370;2023-11-22T02:39:21;5.63;;;5.17;;
78740;SDS011;68062;48.726;9.370;2023-11-22T02:42:08;5.23;;;4.00;;
78740;SDS011;68062;48.726;9.370;2023-11-22T02:44:37;4.00;;;3.80;;
78740;SDS011;68062;48.726;9.370;2023-11-22T02:47:10;5.30;;;4.80;;
78740;SDS011;68062;48.726;9.370;2023-11-22T02:49:55;4.53;;;3.90;;
78740;SDS011;68062;48.726;9.370;2023-11-22T02:52:25;4.93;;;4.30;;
78740;SDS011;68062;48.726;9.370;2023-11-22T02:54:55;8.13;;;4.97;;
78740;SDS011;68062;48.726;9.370;2023-11-22T02:57:23;7.00;;;5.30;;
78740;SDS011;68062;48.726;9.370;2023-11-22T02:59:51;5.87;;;5.20;;
78740;SDS011;68062;48.726;9.370;2023-11-22T03:02:18;6.50;;;5.20;;
78740;SDS011;68062;48.726;9.370;2023-11-22T03:04:51;8.60;;;5.93;;
78740;SDS011;68062;48.726;9.370;2023-11-22T03:07:18;6.27;;;5.17;;
78740;SDS011;68062;48.726;9.370;2023-11-22T03:09:45;7.30;;;5.20;;
78740;SDS011;68062;48.726;9.370;2023-11-22T03:12:13;8.23;;;5.87;;
78740;SDS011;68062;48.726;9.370;2023-11-22T03:14:41;6.90;;;5.87;;
78740;SDS011;68062;48.726;9.370;2023-11-22T03:17:09;6.80;;;5.67;;
78740;SDS011;68062;48.726;9.370;2023-11-22T03:19:36;6.03;;;5.33;;
78740;SDS011;68062;48.726;9.370;2023-11-22T03:22:03;9.20;;;6.47;;
78740;SDS011;68062;48.726;9.370;2023-11-22T03:24:30;8.43;;;5.60;;
78740;SDS011;68062;48.726;9.370;2023-11-22T03:26:59;6.13;;;5.20;;
78740;SDS011;68062;48.726;9.370;2023-11-22T03:29:27;5.63;;;4.43;;
78740;SDS011;68062;48.726;9.370;2023-11-22T03:31:56;6.67;;;5.30;;
78740;SDS011;68062;48.726;9.370;2023-11-22T03:34:24;6.23;;;5.43;;
78740;SDS011;68062;48.726;9.370;2023-11-22T03:36:51;6.33;;;4.33;;
78740;SDS011;68062;48.726;9.370;2023-11-22T03:39:20;6.47;;;5.00;;
78740;SDS011;68062;48.726;9.370;2023-11-22T03:41:47;6.27;;;5.20;;
78740;SDS011;68062;48.726;9.370;2023-11-22T03:44:16;7.73;;;5.57;;
78740;SDS011;68062;48.726;9.370;2023-11-22T03:46:53;6.80;;;4.30;;
78740;SDS011;68062;48.726;9.370;2023-11-22T03:50:04;6.07;;;4.73;;
78740;SDS011;68062;48.726;9.370;2023-11-22T03:52:37;7.40;;;4.37;;
78740;SDS011;68062;48.726;9.370;2023-11-22T03:55:06;5.70;;;4.00;;
78740;SDS011;68062;48.726;9.370;2023-11-22T03:57:34;14.30;;;4.63;;
78740;SDS011;68062;48.726;9.370;2023-11-22T04:00:03;6.10;;;4.43;;
78740;SDS011;68062;48.726;9.370;2023-11-22T04:02:37;5.77;;;4.43;;
78740;SDS011;68062;48.726;9.370;2023-11-22T04:05:15;5.53;;;4.17;;
78740;SDS011;68062;48.726;9.370;2023-11-22T04:07:47;5.60;;;4.37;;
78740;SDS011;68062;48.726;9.370;2023-11-22T04:10:19;5.20;;;4.27;;
78740;SDS011;68062;48.726;9.370;2023-11-22T04:12:47;5.37;;;5.07;;
78740;SDS011;68062;48.726;9.370;2023-11-22T04:15:18;6.63;;;4.30;;
78740;SDS011;68062;48.726;9.370;2023-11-22T04:17:45;6.70;;;4.60;;
78740;SDS011;68062;48.726;9.370;2023-11-22T04:20:12;5.23;;;4.43;;
78740;SDS011;68062;48.726;9.370;2023-11-22T04:22:44;5.77;;;4.30;;
78740;SDS011;68062;48.726;9.370;2023-11-22T04:25:18;5.40;;;4.00;;
78740;SDS011;68062;48.726;9.370;2023-11-22T04:27:45;5.03;;;3.80;;
78740;SDS011;68062;48.726;9.370;2023-11-22T04:30:13;5.57;;;4.47;;
78740;SDS011;68062;48.726;9.370;2023-11-22T04:32:42;6.30;;;4.57;;
78740;SDS011;68062;48.726;9.370;2023-11-22T04:35:52;5.43;;;3.67;;
78740;SDS011;68062;48.726;9.370;2023-11-22T04:38:20;6.23;;;3.97;;
78740;SDS011;68062;48.726;9.370;2023-11-22T04:40:48;5.60;;;3.83;;
78740;SDS011;68062;48.726;9.370;2023-11-22T04:43:15;7.57;;;4.70;;
78740;SDS011;68062;48.726;9.370;2023-11-22T04:45:43;6.93;;;4.30;;
78740;SDS011;68062;48.726;9.370;2023-11-22T04:48:10;6.37;;;4.03;;
78740;SDS011;68062;48.726;9.370;2023-11-22T04:50:40;3.93;;;3.73;;
78740;SDS011;68062;48.726;9.370;2023-11-22T04:53:08;4.13;;;3.67;;
78740;SDS011;68062;48.726;9.370;2023-11-22T04:55:37;5.77;;;4.80;;
78740;SDS011;68062;48.726;9.370;2023-11-22T04:58:09;5.03;;;4.00;;
78740;SDS011;68062;48.726;9.370;2023-11-22T05:00:49;8.00;;;5.57;;
78740;SDS011;68062;48.726;9.370;2023-11-22T05:03:20;5.23;;;3.80;;
78740;SDS011;68062;48.726;9.370;2023-11-22T05:05:49;4.40;;;3.80;;
78740;SDS011;68062;48.726;9.370;2023-11-22T05:08:16;5.93;;;4.67;;
78740;SDS011;68062;48.726;9.370;2023-11-22T05:10:53;5.23;;;4.43;;
78740;SDS011;68062;48.726;9.370;2023-11-22T05:13:20;4.53;;;3.90;;
78740;SDS011;68062;48.726;9.370;2023-11-22T05:15:47;9.23;;;4.70;;
78740;SDS011;68062;48.726;9.370;2023-11-22T05:18:20;5.40;;;4.00;;
78740;SDS011;68062;48.726;9.370;2023-11-22T05:21:10;4.67;;;3.97;;
78740;SDS011;68062;48.726;9.370;2023-11-22T05:23:44;3.97;;;3.57;;
78740;SDS011;68062;48.726;9.370;2023-11-22T05:26:12;6.27;;;4.40;;
78740;SDS011;68062;48.726;9.370;2023-11-22T05:28:39;5.57;;;4.50;;
78740;SDS011;68062;48.726;9.370;2023-11-22T05:31:06;6.13;;;3.90;;
78740;SDS011;68062;48.726;9.370;2023-11-22T05:33:32;6.20;;;4.00;;
78740;SDS011;68062;48.726;9.370;2023-11-22T05:35:59;5.53;;;3.80;;
78740;SDS011;68062;48.726;9.370;2023-11-22T05:38:26;5.17;;;4.73;;
78740;SDS011;68062;48.726;9.370;2023-11-22T05:40:53;7.50;;;5.03;;
78740;SDS011;68062;48.726;9.370;2023-11-22T05:43:21;4.63;;;3.90;;
78740;SDS011;68062;48.726;9.370;2023-11-22T05:45:52;5.57;;;4.23;;
78740;SDS011;68062;48.726;9.370;2023-11-22T05:48:19;5.00;;;4.53;;
78740;SDS011;68062;48.726;9.370;2023-11-22T05:50:47;6.50;;;4.30;;
78740;SDS011;68062;48.726;9.370;2023-11-22T05:53:14;4.53;;;3.50;;
78740;SDS011;68062;48.726;9.370;2023-11-22T05:55:44;4.70;;;3.83;;
78740;SDS011;68062;48.726;9.370;2023-11-22T05:58:11;6.43;;;3.90;;
78740;SDS011;68062;48.726;9.370;2023-11-22T06:00:40;6.10;;;4.13;;
78740;SDS011;68062;48.726;9.370;2023-11-22T06:03:07;5.90;;;4.23;;
78740;SDS011;68062;48.726;9.370;2023-11-22T06:05:34;4.93;;;3.90;;
78740;SDS011;68062;48.726;9.370;2023-11-22T06:08:00;4.90;;;4.00;;
78740;SDS011;68062;48.726;9.370;2023-11-22T06:10:27;5.10;;;3.77;;
78740;SDS011;68062;48.726;9.370;2023-11-22T06:12:55;4.83;;;3.73;;
78740;SDS011;68062;48.726;9.370;2023-11-22T06:15:21;5.00;;;3.87;;
78740;SDS011;68062;48.726;9.370;2023-11-22T06:17:50;4.77;;;3.90;;
78740;SDS011;68062;48.726;9.370;2023-11-22T06:20:17;4.13;;;3.43;;
78740;SDS011;68062;48.726;9.370;2023-11-22T06:22:44;4.40;;;4.07;;
78740;SDS011;68062;48.726;9.370;2023-11-22T06:25:11;7.40;;;4.30;;
78740;SDS011;68062;48.726;9.370;2023-11-22T06:27:38;6.50;;;4.37;;
78740;SDS011;68062;48.726;9.370;2023-11-22T06:30:06;5.17;;;4.23;;
78740;SDS011;68062;48.726;9.370;2023-11-22T06:32:34;6.10;;;4.30;;
78740;SDS011;68062;48.726;9.370;2023-11-22T06:35:02;6.20;;;4.90;;
78740;SDS011;68062;48.726;9.370;2023-11-22T06:37:30;7.13;;;4.00;;
78740;SDS011;68062;48.726;9.370;2023-11-22T06:39:57;5.50;;;4.10;;
78740;SDS011;68062;48.726;9.370;2023-11-22T06:42:24;5.63;;;4.70;;
78740;SDS011;68062;48.726;9.370;2023-11-22T06:44:51;5.33;;;3.60;;
78740;SDS011;68062;48.726;9.370;2023-11-22T06:47:19;5.70;;;4.47;;
78740;SDS011;68062;48.726;9.370;2023-11-22T06:49:46;5.00;;;4.07;;
78740;SDS011;68062;48.726;9.370;2023-11-22T06:52:14;5.73;;;4.20;;
78740;SDS011;68062;48.726;9.370;2023-11-22T06:54:42;4.53;;;4.10;;
78740;SDS011;68062;48.726;9.370;2023-11-22T06:57:09;5.07;;;4.77;;
78740;SDS011;68062;48.726;9.370;2023-11-22T06:59:35;5.10;;;4.33;;
78740;SDS011;68062;48.726;9.370;2023-11-22T07:02:02;5.93;;;4.63;;
78740;SDS011;68062;48.726;9.370;2023-11-22T07:04:29;5.20;;;4.10;;
78740;SDS011;68062;48.726;9.370;2023-11-22T07:06:56;6.90;;;4.93;;
78740;SDS011;68062;48.726;9.370;2023-11-22T07:09:24;7.20;;;4.77;;
78740;SDS011;68062;48.726;9.370;2023-11-22T07:11:51;5.63;;;4.53;;
78740;SDS011;68062;48.726;9.370;2023-11-22T07:14:18;6.80;;;5.50;;
78740;SDS011;68062;48.726;9.370;2023-11-22T07:16:45;5.20;;;4.57;;
78740;SDS011;68062;48.726;9.370;2023-11-22T07:19:12;6.63;;;4.50;;
78740;SDS011;68062;48.726;9.370;2023-11-22T07:21:38;6.60;;;5.13;;
78740;SDS011;68062;48.726;9.370;2023-11-22T07:24:05;5.37;;;4.03;;
78740;SDS011;68062;48.726;9.370;2023-11-22T07:26:35;6.13;;;5.17;;
78740;SDS011;68062;48.726;9.370;2023-11-22T07:29:02;6.40;;;4.57;;
78740;SDS011;68062;48.726;9.370;2023-11-22T07:31:29;6.07;;;4.90;;
78740;SDS011;68062;48.726;9.370;2023-11-22T07:33:57;6.10;;;4.83;;
78740;SDS011;68062;48.726;9.370;2023-11-22T07:36:26;5.23;;;4.50;;
78740;SDS011;68062;48.726;9.370;2023-11-22T07:38:53;6.33;;;4.47;;
78740;SDS011;68062;48.726;9.370;2023-11-22T07:41:20;6.70;;;5.73;;
78740;SDS011;68062;48.726;9.370;2023-11-22T07:43:49;6.00;;;5.07;;
78740;SDS011;68062;48.726;9.370;2023-11-22T07:46:15;5.17;;;4.63;;
78740;SDS011;68062;48.726;9.370;2023-11-22T07:48:44;7.37;;;5.13;;
78740;SDS011;68062;48.726;9.370;2023-11-22T07:51:13;5.93;;;4.90;;
78740;SDS011;68062;48.726;9.370;2023-11-22T07:53:40;5.47;;;4.50;;
78740;SDS011;68062;48.726;9.370;2023-11-22T07:56:08;8.40;;;4.40;;
78740;SDS011;68062;48.726;9.370;2023-11-22T07:58:37;6.90;;;4.70;;
78740;SDS011;68062;48.726;9.370;2023-11-22T08:01:05;5.80;;;4.20;;
78740;SDS011;68062;48.726;9.370;2023-11-22T08:03:39;7.73;;;4.67;;
78740;SDS011;68062;48.726;9.370;2023-11-22T08:06:09;5.93;;;5.67;;
78740;SDS011;68062;48.726;9.370;2023-11-22T08:08:36;7.83;;;3.93;;
78740;SDS011;68062;48.726;9.370;2023-11-22T08:11:05;6.10;;;4.90;;
78740;SDS011;68062;48.726;9.370;2023-11-22T08:13:40;9.07;;;4.63;;
78740;SDS011;68062;48.726;9.370;2023-11-22T08:16:09;4.73;;;3.80;;
78740;SDS011;68062;48.726;9.370;2023-11-22T08:18:38;6.80;;;4.13;;
78740;SDS011;68062;48.726;9.370;2023-11-22T08:21:06;6.40;;;4.27;;
78740;SDS011;68062;48.726;9.370;2023-11-22T08:23:33;5.90;;;3.50;;
78740;SDS011;68062;48.726;9.370;2023-11-22T08:26:00;5.87;;;4.60;;
78740;SDS011;68062;48.726;9.370;2023-11-22T08:28:28;5.73;;;4.20;;
78740;SDS011;68062;48.726;9.370;2023-11-22T08:30:56;7.67;;;4.63;;
78740;SDS011;68062;48.726;9.370;2023-11-22T08:33:24;6.93;;;4.67;;
78740;SDS011;68062;48.726;9.370;2023-11-22T08:35:50;6.07;;;4.10;;
78740;SDS011;68062;48.726;9.370;2023-11-22T08:38:23;3.77;;;3.47;;
78740;SDS011;68062;48.726;9.370;2023-11-22T08:40:50;7.50;;;4.30;;
78740;SDS011;68062;48.726;9.370;2023-11-22T08:43:20;5.70;;;4.63;;
78740;SDS011;68062;48.726;9.370;2023-11-22T08:45:48;6.40;;;4.70;;
78740;SDS011;68062;48.726;9.370;2023-11-22T08:48:15;6.83;;;4.93;;
78740;SDS011;68062;48.726;9.370;2023-11-22T08:50:44;6.63;;;5.20;;
78740;SDS011;68062;48.726;9.370;2023-11-22T08:53:13;7.27;;;4.87;;
78740;SDS011;68062;48.726;9.370;2023-11-22T08:55:40;5.30;;;4.23;;
78740;SDS011;68062;48.726;9.370;2023-11-22T08:58:09;5.30;;;4.97;;
78740;SDS011;68062;48.726;9.370;2023-11-22T09:00:36;5.83;;;4.57;;
78740;SDS011;68062;48.726;9.370;2023-11-22T09:03:03;5.60;;;4.73;;
78740;SDS011;68062;48.726;9.370;2023-11-22T09:05:30;7.23;;;4.80;;
78740;SDS011;68062;48.726;9.370;2023-11-22T09:07:58;8.60;;;5.60;;
78740;SDS011;68062;48.726;9.370;2023-11-22T09:10:24;6.33;;;5.00;;
78740;SDS011;68062;48.726;9.370;2023-11-22T09:12:52;6.97;;;4.13;;
78740;SDS011;68062;48.726;9.370;2023-11-22T09:15:19;7.70;;;4.73;;
78740;SDS011;68062;48.726;9.370;2023-11-22T09:17:51;7.83;;;4.90;;
78740;SDS011;68062;48.726;9.370;2023-11-22T09:20:19;6.77;;;5.10;;
78740;SDS011;68062;48.726;9.370;2023-11-22T09:22:47;5.07;;;3.80;;
78740;SDS011;68062;48.726;9.370;2023-11-22T09:25:17;5.37;;;4.57;;
78740;SDS011;68062;48.726;9.370;2023-11-22T09:27:44;6.67;;;4.80;;
78740;SDS011;68062;48.726;9.370;2023-11-22T09:30:14;5.53;;;5.07;;
78740;SDS011;68062;48.726;9.370;2023-11-22T09:32:57;5.63;;;4.00;;
78740;SDS011;68062;48.726;9.370;2023-11-22T09:35:24;8.20;;;5.70;;
78740;SDS011;68062;48.726;9.370;2023-11-22T09:37:51;5.17;;;4.53;;
78740;SDS011;68062;48.726;9.370;2023-11-22T09:40:19;5.80;;;4.47;;
78740;SDS011;68062;48.726;9.370;2023-11-22T09:42:48;6.13;;;4.17;;
78740;SDS011;68062;48.726;9.370;2023-11-22T09:45:16;6.53;;;4.13;;
78740;SDS011;68062;48.726;9.370;2023-11-22T09:47:44;5.30;;;3.77;;
78740;SDS011;68062;48.726;9.370;2023-11-22T09:50:11;5.20;;;3.80;;
78740;SDS011;68062;48.726;9.370;2023-11-22T09:52:43;8.70;;;4.70;;
78740;SDS011;68062;48.726;9.370;2023-11-22T09:55:16;6.10;;;5.03;;
78740;SDS011;68062;48.726;9.370;2023-11-22T09:57:45;5.53;;;4.60;;
78740;SDS011;68062;48.726;9.370;2023-11-22T10:00:12;7.47;;;5.57;;
78740;SDS011;68062;48.726;9.370;2023-11-22T10:02:44;5.97;;;4.90;;
78740;SDS011;68062;48.726;9.370;2023-11-22T10:05:11;5.83;;;4.40;;
78740;SDS011;68062;48.726;9.370;2023-11-22T10:07:39;7.30;;;5.50;;
78740;SDS011;68062;48.726;9.370;2023-11-22T10:10:05;6.60;;;5.07;;
78740;SDS011;68062;48.726;9.370;2023-11-22T10:12:36;7.00;;;4.80;;
78740;SDS011;68062;48.726;9.370;2023-11-22T10:15:13;7.17;;;5.10;;
78740;SDS011;68062;48.726;9.370;2023-11-22T10:17:44;8.60;;;6.40;;
78740;SDS011;68062;48.726;9.370;2023-11-22T10:20:14;7.83;;;5.20;;
78740;SDS011;68062;48.726;9.370;2023-11-22T10:22:45;9.90;;;5.43;;
78740;SDS011;68062;48.726;9.370;2023-11-22T10:25:13;8.43;;;4.40;;
78740;SDS011;68062;48.726;9.370;2023-11-22T10:27:44;6.87;;;5.40;;
78740;SDS011;68062;48.726;9.370;2023-11-22T10:30:14;8.20;;;5.57;;
78740;SDS011;68062;48.726;9.370;2023-11-22T10:32:41;5.57;;;5.13;;
78740;SDS011;68062;48.726;9.370;2023-11-22T10:35:08;8.90;;;5.70;;
78740;SDS011;68062;48.726;9.370;2023-11-22T10:37:35;7.07;;;5.80;;
78740;SDS011;68062;48.726;9.370;2023-11-22T10:40:02;5.33;;;4.97;;
78740;SDS011;68062;48.726;9.370;2023-11-22T10:42:31;8.13;;;6.10;;
78740;SDS011;68062;48.726;9.370;2023-11-22T10:44:59;6.77;;;5.40;;
78740;SDS011;68062;48.726;9.370;2023-11-22T10:47:30;7.17;;;5.83;;
78740;SDS011;68062;48.726;9.370;2023-11-22T10:49:58;7.80;;;6.60;;
78740;SDS011;68062;48.726;9.370;2023-11-22T10:52:27;7.07;;;5.70;;
78740;SDS011;68062;48.726;9.370;2023-11-22T10:54:55;7.67;;;6.40;;
78740;SDS011;68062;48.726;9.370;2023-11-22T10:57:29;8.83;;;6.60;;
78740;SDS011;68062;48.726;9.370;2023-11-22T11:00:00;7.37;;;5.63;;
78740;SDS011;68062;48.726;9.370;2023-11-22T11:02:37;12.10;;;7.27;;
78740;SDS011;68062;48.726;9.370;2023-11-22T11:05:09;7.50;;;6.30;;
78740;SDS011;68062;48.726;9.370;2023-11-22T11:07:44;6.33;;;5.80;;
78740;SDS011;68062;48.726;9.370;2023-11-22T11:10:17;9.00;;;5.80;;
78740;SDS011;68062;48.726;9.370;2023-11-22T11:12:46;6.80;;;5.53;;
78740;SDS011;68062;48.726;9.370;2023-11-22T11:15:13;8.93;;;6.57;;
78740;SDS011;68062;48.726;9.370;2023-11-22T11:17:44;6.90;;;6.13;;
78740;SDS011;68062;48.726;9.370;2023-11-22T11:20:15;6.13;;;5.73;;
78740;SDS011;68062;48.726;9.370;2023-11-22T11:22:43;7.10;;;6.30;;
78740;SDS011;68062;48.726;9.370;2023-11-22T11:25:13;7.33;;;6.67;;
78740;SDS011;68062;48.726;9.370;2023-11-22T11:27:44;9.23;;;6.60;;
78740;SDS011;68062;48.726;9.370;2023-11-22T11:33:15;7.47;;;6.20;;
78740;SDS011;68062;48.726;9.370;2023-11-22T11:35:45;7.50;;;6.27;;
78740;SDS011;68062;48.726;9.370;2023-11-22T11:38:13;7.90;;;6.00;;
78740;SDS011;68062;48.726;9.370;2023-11-22T11:40:42;7.53;;;6.43;;
78740;SDS011;68062;48.726;9.370;2023-11-22T11:43:13;8.80;;;5.90;;
78740;SDS011;68062;48.726;9.370;2023-11-22T11:45:52;8.13;;;7.00;;
78740;SDS011;68062;48.726;9.370;2023-11-22T11:48:21;8.47;;;6.43;;
78740;SDS011;68062;48.726;9.370;2023-11-22T11:50:52;8.83;;;6.27;;
78740;SDS011;68062;48.726;9.370;2023-11-22T11:53:19;9.40;;;7.17;;
78740;SDS011;68062;48.726;9.370;2023-11-22T11:55:46;10.57;;;6.83;;
78740;SDS011;68062;48.726;9.370;2023-11-22T11:58:16;7.57;;;6.57;;
78740;SDS011;68062;48.726;9.370;2023-11-22T12:00:42;6.83;;;5.67;;
78740;SDS011;68062;48.726;9.370;2023-11-22T12:03:09;7.20;;;5.70;;
78740;SDS011;68062;48.726;9.370;2023-11-22T12:05:38;6.87;;;6.00;;
78740;SDS011;68062;48.726;9.370;2023-11-22T12:08:05;7.93;;;5.90;;
78740;SDS011;68062;48.726;9.370;2023-11-22T12:10:32;6.93;;;5.63;;
78740;SDS011;68062;48.726;9.370;2023-11-22T12:12:59;7.10;;;6.70;;
78740;SDS011;68062;48.726;9.370;2023-11-22T12:15:26;12.73;;;6.57;;
78740;SDS011;68062;48.726;9.370;2023-11-22T12:17:54;7.80;;;6.73;;
78740;SDS011;68062;48.726;9.370;2023-11-22T12:20:22;7.53;;;6.30;;
78740;SDS011;68062;48.726;9.370;2023-11-22T12:22:52;10.60;;;6.70;;
78740;SDS011;68062;48.726;9.370;2023-11-22T12:25:19;9.40;;;6.40;;
78740;SDS011;68062;48.726;9.370;2023-11-22T12:27:46;11.83;;;7.57;;
78740;SDS011;68062;48.726;9.370;2023-11-22T12:30:29;8.90;;;6.90;;
78740;SDS011;68062;48.726;9.370;2023-11-22T12:33:01;10.40;;;7.03;;
78740;SDS011;68062;48.726;9.370;2023-11-22T12:35:29;7.23;;;5.77;;
78740;SDS011;68062;48.726;9.370;2023-11-22T12:37:59;5.70;;;5.20;;
78740;SDS011;68062;48.726;9.370;2023-11-22T12:40:27;8.47;;;6.30;;
78740;SDS011;68062;48.726;9.370;2023-11-22T12:42:57;9.13;;;6.90;;
78740;SDS011;68062;48.726;9.370;2023-11-22T12:45:25;6.70;;;5.50;;
78740;SDS011;68062;48.726;9.370;2023-11-22T12:47:54;10.33;;;6.10;;
78740;SDS011;68062;48.726;9.370;2023-11-22T12:50:30;7.90;;;5.30;;
78740;SDS011;68062;48.726;9.370;2023-11-22T12:53:02;8.67;;;6.30;;
78740;SDS011;68062;48.726;9.370;2023-11-22T12:55:36;8.60;;;5.90;;
78740;SDS011;68062;48.726;9.370;2023-11-22T12:58:03;8.97;;;6.30;;
78740;SDS011;68062;48.726;9.370;2023-11-22T13:00:30;8.30;;;5.80;;
78740;SDS011;68062;48.726;9.370;2023-11-22T13:02:58;7.73;;;5.10;;
78740;SDS011;68062;48.726;9.370;2023-11-22T13:05:25;8.40;;;4.90;;
78740;SDS011;68062;48.726;9.370;2023-11-22T13:07:52;7.57;;;5.30;;
78740;SDS011;68062;48.726;9.370;2023-11-22T13:10:20;6.80;;;6.10;;
78740;SDS011;68062;48.726;9.370;2023-11-22T13:12:52;7.03;;;5.93;;
78740;SDS011;68062;48.726;9.370;2023-11-22T13:15:19;7.40;;;5.60;;
78740;SDS011;68062;48.726;9.370;2023-11-22T13:17:49;6.13;;;5.50;;
78740;SDS011;68062;48.726;9.370;2023-11-22T13:20:20;5.70;;;5.40;;
78740;SDS011;68062;48.726;9.370;2023-11-22T13:22:51;5.50;;;5.20;;
78740;SDS011;68062;48.726;9.370;2023-11-22T13:25:18;6.63;;;5.43;;
78740;SDS011;68062;48.726;9.370;2023-11-22T13:27:47;6.67;;;5.37;;
78740;SDS011;68062;48.726;9.370;2023-11-22T13:30:14;5.43;;;4.90;;
78740;SDS011;68062;48.726;9.370;2023-11-22T13:32:43;6.87;;;5.33;;
78740;SDS011;68062;48.726;9.370;2023-11-22T13:35:10;9.00;;;5.30;;
78740;SDS011;68062;48.726;9.370;2023-11-22T13:37:43;6.90;;;5.37;;
78740;SDS011;68062;48.726;9.370;2023-11-22T13:40:10;6.53;;;4.70;;
78740;SDS011;68062;48.726;9.370;2023-11-22T13:42:43;5.70;;;4.50;;
78740;SDS011;68062;48.726;9.370;2023-11-22T13:45:11;7.17;;;5.80;;
78740;SDS011;68062;48.726;9.370;2023-11-22T13:47:41;4.83;;;4.43;;
78740;SDS011;68062;48.726;9.370;2023-11-22T13:50:09;6.87;;;5.40;;
78740;SDS011;68062;48.726;9.370;2023-11-22T13:52:36;6.07;;;4.63;;
78740;SDS011;68062;48.726;9.370;2023-11-22T13:55:03;7.10;;;5.20;;
78740;SDS011;68062;48.726;9.370;2023-11-22T13:57:33;7.43;;;5.27;;
78740;SDS011;68062;48.726;9.370;2023-11-22T14:00:01;4.90;;;4.50;;
78740;SDS011;68062;48.726;9.370;2023-11-22T14:02:31;5.87;;;5.00;;
78740;SDS011;68062;48.726;9.370;2023-11-22T14:04:57;6.33;;;4.77;;
78740;SDS011;68062;48.726;9.370;2023-11-22T14:07:25;5.70;;;4.77;;
78740;SDS011;68062;48.726;9.370;2023-11-22T14:09:52;5.87;;;4.83;;
78740;SDS011;68062;48.726;9.370;2023-11-22T14:12:19;6.33;;;4.80;;
78740;SDS011;68062;48.726;9.370;2023-11-22T14:14:46;6.00;;;4.93;;
78740;SDS011;68062;48.726;9.370;2023-11-22T14:17:12;6.40;;;5.20;;
78740;SDS011;68062;48.726;9.370;2023-11-22T14:19:41;11.00;;;5.93;;
78740;SDS011;68062;48.726;9.370;2023-11-22T14:22:07;6.50;;;4.80;;
78740;SDS011;68062;48.726;9.370;2023-11-22T14:24:34;7.27;;;5.20;;
78740;SDS011;68062;48.726;9.370;2023-11-22T14:27:04;7.17;;;5.30;;
78740;SDS011;68062;48.726;9.370;2023-11-22T14:29:30;6.87;;;5.80;;
78740;SDS011;68062;48.726;9.370;2023-11-22T14:31:58;5.40;;;4.80;;
78740;SDS011;68062;48.726;9.370;2023-11-22T14:34:25;9.23;;;5.40;;
78740;SDS011;68062;48.726;9.370;2023-11-22T14:36:53;5.27;;;4.57;;
78740;SDS011;68062;48.726;9.370;2023-11-22T14:39:20;10.17;;;5.30;;
78740;SDS011;68062;48.726;9.370;2023-11-22T14:41:47;7.40;;;5.87;;
78740;SDS011;68062;48.726;9.370;2023-11-22T14:44:14;8.93;;;6.20;;
78740;SDS011;68062;48.726;9.370;2023-11-22T14:46:40;8.67;;;5.50;;
78740;SDS011;68062;48.726;9.370;2023-11-22T14:49:07;6.90;;;5.13;;
78740;SDS011;68062;48.726;9.370;2023-11-22T14:51:34;6.80;;;5.30;;
78740;SDS011;68062;48.726;9.370;2023-11-22T14:54:02;7.50;;;5.87;;
78740;SDS011;68062;48.726;9.370;2023-11-22T14:56:29;6.23;;;5.07;;
78740;SDS011;68062;48.726;9.370;2023-11-22T14:58:56;7.40;;;5.43;;